createdAt,value
2016-04-01T00:00:30.878Z,0
2016-04-01T00:01:30.897Z,0
2016-04-01T00:02:30.915Z,0
2016-04-01T00:03:31.058Z,0
2016-04-01T00:04:30.936Z,0
2016-04-01T00:05:30.922Z,0
2016-04-01T00:06:30.925Z,0
2016-04-01T00:07:30.944Z,0
2016-04-01T00:08:30.947Z,0
2016-04-01T00:09:30.949Z,0
2016-04-01T00:10:30.968Z,0
2016-04-01T00:11:30.971Z,0
2016-04-01T00:12:30.974Z,0
2016-04-01T00:13:30.991Z,0
2016-04-01T00:14:30.994Z,0
2016-04-01T00:15:31.012Z,0
2016-04-01T00:16:31.047Z,0
2016-04-01T00:17:31.018Z,0
2016-04-01T00:18:31.082Z,0
2016-04-01T00:19:31.039Z,0
2016-04-01T00:20:31.041Z,0
2016-04-01T00:21:31.043Z,0
2016-04-01T00:22:31.047Z,0
2016-04-01T00:23:31.065Z,0
2016-04-01T00:24:31.084Z,0
2016-04-01T00:25:31.087Z,0
2016-04-01T00:26:31.104Z,0
2016-04-01T00:27:31.107Z,0
2016-04-01T00:28:31.109Z,0
2016-04-01T00:29:31.159Z,0
2016-04-01T00:30:31.115Z,0
2016-04-01T00:31:31.117Z,0
2016-04-01T00:32:31.137Z,0
2016-04-01T00:33:31.123Z,0
2016-04-01T00:34:31.141Z,0
2016-04-01T00:35:31.129Z,0
2016-04-01T00:36:31.147Z,0
2016-04-01T00:37:31.211Z,0
2016-04-01T00:38:31.200Z,0
2016-04-01T00:39:31.186Z,0
2016-04-01T00:40:31.189Z,0
2016-04-01T00:41:31.223Z,0
2016-04-01T00:42:31.210Z,0
2016-04-01T00:43:31.213Z,0
2016-04-01T00:44:31.215Z,0
2016-04-01T00:45:31.218Z,0
2016-04-01T00:46:31.221Z,0
2016-04-01T00:47:31.238Z,0
2016-04-01T00:48:31.382Z,0
2016-04-01T00:49:31.229Z,0
2016-04-01T00:50:31.544Z,0
2016-04-01T00:51:31.266Z,0
2016-04-01T00:52:31.268Z,0
2016-04-01T00:53:31.286Z,0
2016-04-01T00:54:31.305Z,0
2016-04-01T00:55:31.293Z,0
2016-04-01T00:56:31.310Z,0
2016-04-01T00:57:31.298Z,0
2016-04-01T00:58:31.300Z,0
2016-04-01T00:59:31.318Z,0
2016-04-01T01:00:31.321Z,0
2016-04-01T01:01:31.324Z,0
2016-04-01T01:02:31.342Z,0
2016-04-01T01:03:31.314Z,0
2016-04-01T01:04:31.364Z,0
2016-04-01T01:05:31.366Z,0
2016-04-01T01:06:31.384Z,0
2016-04-01T01:07:31.386Z,0
2016-04-01T01:08:31.436Z,0
2016-04-01T01:09:31.392Z,0
2016-04-01T01:10:31.395Z,0
2016-04-01T01:11:31.413Z,0
2016-04-01T01:12:31.416Z,0
2016-04-01T01:13:31.419Z,0
2016-04-01T01:14:31.436Z,0
2016-04-01T01:15:31.439Z,0
2016-04-01T01:16:31.442Z,0
2016-04-01T01:17:31.460Z,0
2016-04-01T01:18:31.526Z,0
2016-04-01T01:19:31.466Z,0
2016-04-01T01:20:31.452Z,0
2016-04-01T01:21:31.471Z,0
2016-04-01T01:22:31.505Z,0
2016-04-01T01:23:31.523Z,0
2016-04-01T01:24:31.495Z,0
2016-04-01T01:25:31.529Z,0
2016-04-01T01:26:31.515Z,0
2016-04-01T01:27:31.534Z,0
2016-04-01T01:28:31.537Z,0
2016-04-01T01:29:31.540Z,0
2016-04-01T01:30:31.542Z,0
2016-04-01T01:31:31.561Z,0
2016-04-01T01:32:31.564Z,0
2016-04-01T01:33:31.909Z,0
2016-04-01T01:34:31.584Z,0
2016-04-01T01:35:31.586Z,0
2016-04-01T01:36:31.589Z,0
2016-04-01T01:37:31.608Z,0
2016-04-01T01:38:31.626Z,0
2016-04-01T01:39:31.613Z,0
2016-04-01T01:40:31.631Z,0
2016-04-01T01:41:31.619Z,0
2016-04-01T01:42:31.621Z,0
2016-04-01T01:43:31.655Z,0
2016-04-01T01:44:31.641Z,0
2016-04-01T01:45:31.645Z,0
2016-04-01T01:46:31.694Z,0
2016-04-01T01:47:31.682Z,0
2016-04-01T01:48:31.653Z,0
2016-04-01T01:49:31.702Z,0
2016-04-01T01:50:31.721Z,0
2016-04-01T01:51:31.693Z,0
2016-04-01T01:52:31.710Z,0
2016-04-01T01:53:31.729Z,0
2016-04-01T01:54:31.716Z,0
2016-04-01T01:55:31.719Z,0
2016-04-01T01:56:31.721Z,0
2016-04-01T01:57:31.740Z,0
2016-04-01T01:58:31.759Z,0
2016-04-01T01:59:31.761Z,0
2016-04-01T02:00:31.764Z,0
2016-04-01T02:01:31.766Z,0
2016-04-01T02:02:31.769Z,0
2016-04-01T02:03:31.990Z,0
2016-04-01T02:04:31.039Z,0
2016-04-01T02:05:31.792Z,0
2016-04-01T02:06:31.795Z,0
2016-04-01T02:07:31.501Z,0
2016-04-01T02:08:31.805Z,0
2016-04-01T02:09:31.824Z,0
2016-04-01T02:10:31.842Z,0
2016-04-01T02:11:31.845Z,0
2016-04-01T02:12:31.863Z,0
2016-04-01T02:13:31.850Z,0
2016-04-01T02:14:31.868Z,0
2016-04-01T02:15:31.887Z,0
2016-04-01T02:16:31.890Z,0
2016-04-01T02:17:31.893Z,0
2016-04-01T02:18:31.739Z,0
2016-04-01T02:19:31.882Z,0
2016-04-01T02:20:31.884Z,0
2016-04-01T02:21:31.903Z,0
2016-04-01T02:22:31.921Z,0
2016-04-01T02:23:31.924Z,0
2016-04-01T02:24:31.973Z,0
2016-04-01T02:25:31.945Z,0
2016-04-01T02:26:31.948Z,0
2016-04-01T02:27:31.966Z,0
2016-04-01T02:28:31.969Z,0
2016-04-01T02:29:31.987Z,0
2016-04-01T02:30:31.974Z,0
2016-04-01T02:31:32.039Z,0
2016-04-01T02:32:31.995Z,0
2016-04-01T02:33:31.903Z,0
2016-04-01T02:34:32.000Z,0
2016-04-01T02:35:32.034Z,0
2016-04-01T02:36:32.022Z,0
2016-04-01T02:37:32.040Z,0
2016-04-01T02:38:32.042Z,0
2016-04-01T02:39:32.061Z,0
2016-04-01T02:40:32.063Z,0
2016-04-01T02:41:32.066Z,0
2016-04-01T02:42:32.084Z,0
2016-04-01T02:43:32.071Z,0
2016-04-01T02:44:32.074Z,0
2016-04-01T02:45:32.076Z,0
2016-04-01T02:46:32.095Z,0
2016-04-01T02:47:32.098Z,0
2016-04-01T02:48:32.240Z,0
2016-04-01T02:49:32.118Z,0
2016-04-01T02:50:32.121Z,0
2016-04-01T02:51:32.109Z,0
2016-04-01T02:52:32.143Z,0
2016-04-01T02:53:32.161Z,0
2016-04-01T02:54:32.148Z,0
2016-04-01T02:55:32.151Z,0
2016-04-01T02:56:32.169Z,0
2016-04-01T02:57:32.187Z,0
2016-04-01T02:58:32.174Z,0
2016-04-01T02:59:32.177Z,0
2016-04-01T03:00:32.195Z,0
2016-04-01T03:01:32.198Z,0
2016-04-01T03:02:32.248Z,0
2016-04-01T03:03:32.406Z,0
2016-04-01T03:04:32.206Z,0
2016-04-01T03:05:32.239Z,0
2016-04-01T03:06:32.243Z,0
2016-04-01T03:07:32.261Z,0
2016-04-01T03:08:32.263Z,0
2016-04-01T03:09:32.267Z,0
2016-04-01T03:10:32.269Z,0
2016-04-01T03:11:32.272Z,0
2016-04-01T03:12:32.291Z,0
2016-04-01T03:13:32.293Z,0
2016-04-01T03:14:32.296Z,0
2016-04-01T03:15:32.298Z,0
2016-04-01T03:16:32.316Z,0
2016-04-01T03:17:32.318Z,0
2016-04-01T03:18:32.399Z,0
2016-04-01T03:19:32.340Z,0
2016-04-01T03:20:32.343Z,0
2016-04-01T03:21:32.361Z,0
2016-04-01T03:22:32.363Z,0
2016-04-01T03:23:32.382Z,0
2016-04-01T03:24:32.385Z,0
2016-04-01T03:25:32.371Z,0
2016-04-01T03:26:32.390Z,0
2016-04-01T03:27:32.393Z,0
2016-04-01T03:28:32.396Z,0
2016-04-01T03:29:32.461Z,0
2016-04-01T03:30:32.417Z,0
2016-04-01T03:31:32.404Z,0
2016-04-01T03:32:32.423Z,0
2016-04-01T03:33:32.517Z,0
2016-04-01T03:34:32.458Z,0
2016-04-01T03:35:32.523Z,0
2016-04-01T03:36:32.480Z,0
2016-04-01T03:37:32.483Z,0
2016-04-01T03:38:32.485Z,0
2016-04-01T03:39:32.472Z,0
2016-04-01T03:40:32.475Z,0
2016-04-01T03:41:32.508Z,0
2016-04-01T03:42:32.496Z,0
2016-04-01T03:43:32.514Z,0
2016-04-01T03:44:32.502Z,0
2016-04-01T03:45:32.535Z,0
2016-04-01T03:46:32.522Z,0
2016-04-01T03:47:32.525Z,0
2016-04-01T03:48:32.340Z,0
2016-04-01T03:49:32.546Z,0
2016-04-01T03:50:32.549Z,0
2016-04-01T03:51:32.598Z,0
2016-04-01T03:52:32.585Z,0
2016-04-01T03:53:32.588Z,0
2016-04-01T03:54:32.575Z,0
2016-04-01T03:55:32.609Z,0
2016-04-01T03:56:32.611Z,0
2016-04-01T03:57:32.614Z,0
2016-04-01T03:58:32.632Z,0
2016-04-01T03:59:32.634Z,0
2016-04-01T04:00:32.622Z,0
2016-04-01T04:01:32.656Z,0
2016-04-01T04:02:32.659Z,0
2016-04-01T04:03:32.709Z,0
2016-04-01T04:04:32.664Z,0
2016-04-01T04:05:32.651Z,0
2016-04-01T04:06:32.670Z,0
2016-04-01T04:07:32.688Z,0
2016-04-01T04:08:32.675Z,0
2016-04-01T04:09:32.694Z,0
2016-04-01T04:10:32.696Z,0
2016-04-01T04:11:32.699Z,0
2016-04-01T04:12:32.417Z,0
2016-04-01T04:13:32.717Z,0
2016-04-01T04:14:32.719Z,0
2016-04-01T04:15:32.738Z,0
2016-04-01T04:16:32.741Z,0
2016-04-01T04:17:32.744Z,0
2016-04-01T04:18:33.043Z,0
2016-04-01T04:19:32.764Z,0
2016-04-01T04:20:32.752Z,0
2016-04-01T04:21:32.769Z,0
2016-04-01T04:22:32.788Z,0
2016-04-01T04:23:32.791Z,0
2016-04-01T04:24:32.810Z,0
2016-04-01T04:25:32.812Z,0
2016-04-01T04:26:32.815Z,0
2016-04-01T04:27:32.802Z,0
2016-04-01T04:28:32.836Z,0
2016-04-01T04:29:32.854Z,0
2016-04-01T04:30:32.826Z,0
2016-04-01T04:31:32.844Z,0
2016-04-01T04:32:32.846Z,0
2016-04-01T04:33:32.927Z,0
2016-04-01T04:34:32.867Z,0
2016-04-01T04:35:32.886Z,0
2016-04-01T04:36:32.873Z,0
2016-04-01T04:37:32.891Z,0
2016-04-01T04:38:32.894Z,0
2016-04-01T04:39:32.928Z,0
2016-04-01T04:40:32.914Z,0
2016-04-01T04:41:32.933Z,0
2016-04-01T04:42:32.920Z,0
2016-04-01T04:43:32.939Z,0
2016-04-01T04:44:32.957Z,0
2016-04-01T04:45:32.944Z,0
2016-04-01T04:46:32.962Z,0
2016-04-01T04:47:32.949Z,0
2016-04-01T04:48:33.030Z,0
2016-04-01T04:49:32.986Z,0
2016-04-01T04:50:32.972Z,0
2016-04-01T04:51:33.007Z,0
2016-04-01T04:52:32.994Z,0
2016-04-01T04:53:33.012Z,0
2016-04-01T04:54:32.999Z,0
2016-04-01T04:55:33.018Z,0
2016-04-01T04:56:33.020Z,0
2016-04-01T04:57:33.024Z,0
2016-04-01T04:58:33.057Z,0
2016-04-01T04:59:33.043Z,0
2016-04-01T05:00:33.063Z,0
2016-04-01T05:01:33.065Z,0
2016-04-01T05:02:33.067Z,0
2016-04-01T05:03:33.196Z,0
2016-04-01T05:04:33.104Z,0
2016-04-01T05:05:33.076Z,0
2016-04-01T05:06:33.094Z,0
2016-04-01T05:07:33.143Z,0
2016-04-01T05:08:33.145Z,0
2016-04-01T05:09:33.148Z,0
2016-04-01T05:10:33.136Z,0
2016-04-01T05:11:33.170Z,0
2016-04-01T05:12:33.141Z,0
2016-04-01T05:13:33.160Z,0
2016-04-01T05:14:33.178Z,0
2016-04-01T05:15:32.446Z,0
2016-04-01T05:16:33.168Z,0
2016-04-01T05:17:33.045Z,0
2016-04-01T05:18:33.251Z,0
2016-04-01T05:19:33.191Z,0
2016-04-01T05:20:33.210Z,0
2016-04-01T05:21:33.213Z,0
2016-04-01T05:22:33.216Z,0
2016-04-01T05:23:33.218Z,0
2016-04-01T05:24:33.221Z,0
2016-04-01T05:25:33.224Z,0
2016-04-01T05:26:33.211Z,0
2016-04-01T05:27:33.244Z,0
2016-04-01T05:28:33.231Z,0
2016-04-01T05:29:33.234Z,0
2016-04-01T05:30:33.127Z,0
2016-04-01T05:31:33.271Z,0
2016-04-01T05:32:32.539Z,0
2016-04-01T05:33:33.167Z,0
2016-04-01T05:34:33.295Z,0
2016-04-01T05:35:33.312Z,0
2016-04-01T05:36:33.331Z,0
2016-04-01T05:37:33.318Z,0
2016-04-01T05:38:33.337Z,0
2016-04-01T05:39:33.324Z,0
2016-04-01T05:40:33.342Z,0
2016-04-01T05:41:33.375Z,0
2016-04-01T05:42:33.332Z,0
2016-04-01T05:43:33.350Z,0
2016-04-01T05:44:33.353Z,0
2016-04-01T05:45:33.402Z,0
2016-04-01T05:46:33.358Z,0
2016-04-01T05:47:33.361Z,0
2016-04-01T05:48:33.426Z,0
2016-04-01T05:49:33.397Z,0
2016-04-01T05:50:33.430Z,0
2016-04-01T05:51:33.418Z,0
2016-04-01T05:52:33.421Z,0
2016-04-01T05:53:33.408Z,0
2016-04-01T05:54:33.427Z,0
2016-04-01T05:55:33.476Z,0
2016-04-01T05:56:33.432Z,0
2016-04-01T05:57:33.450Z,0
2016-04-01T05:58:33.468Z,0
2016-04-01T05:59:33.455Z,0
2016-04-01T06:00:33.458Z,0
2016-04-01T06:01:33.460Z,0
2016-04-01T06:02:33.496Z,0
2016-04-01T06:03:33.387Z,0
2016-04-01T06:04:33.500Z,0
2016-04-01T06:05:33.518Z,0
2016-04-01T06:06:33.489Z,0
2016-04-01T06:07:33.243Z,0
2016-04-01T06:08:33.546Z,0
2016-04-01T06:09:33.392Z,0
2016-04-01T06:10:33.567Z,0
2016-04-01T06:11:33.570Z,0
2016-04-01T06:12:33.604Z,0
2016-04-01T06:13:33.575Z,0
2016-04-01T06:14:33.594Z,0
2016-04-01T06:15:33.581Z,0
2016-04-01T06:16:33.599Z,0
2016-04-01T06:17:33.571Z,0
2016-04-01T06:18:33.620Z,0
2016-04-01T06:19:33.607Z,0
2016-04-01T06:20:33.610Z,0
2016-04-01T06:21:33.628Z,0
2016-04-01T06:22:33.645Z,0
2016-04-01T06:23:33.664Z,0
2016-04-01T06:24:33.652Z,0
2016-04-01T06:25:33.654Z,0
2016-04-01T06:26:33.656Z,0
2016-04-01T06:27:33.659Z,0
2016-04-01T06:28:33.678Z,0
2016-04-01T06:29:33.665Z,0
2016-04-01T06:30:33.683Z,0
2016-04-01T06:31:33.686Z,0
2016-04-01T06:32:33.689Z,0
2016-04-01T06:33:33.551Z,0
2016-04-01T06:34:33.710Z,0
2016-04-01T06:35:33.712Z,0
2016-04-01T06:36:33.715Z,0
2016-04-01T06:37:33.750Z,0
2016-04-01T06:38:33.752Z,0
2016-04-01T06:39:33.755Z,0
2016-04-01T06:40:33.742Z,0
2016-04-01T06:41:33.760Z,0
2016-04-01T06:42:33.763Z,0
2016-04-01T06:43:33.765Z,0
2016-04-01T06:44:33.768Z,0
2016-04-01T06:45:33.786Z,0
2016-04-01T06:46:33.835Z,0
2016-04-01T06:47:33.807Z,0
2016-04-01T06:48:33.888Z,0
2016-04-01T06:49:33.813Z,0
2016-04-01T06:50:33.832Z,0
2016-04-01T06:51:33.865Z,5
2016-04-01T06:52:33.821Z,0
2016-04-01T06:53:33.855Z,0
2016-04-01T06:54:33.842Z,0
2016-04-01T06:55:33.845Z,0
2016-04-01T06:56:33.863Z,0
2016-04-01T06:57:33.865Z,0
2016-04-01T06:58:33.868Z,0
2016-04-01T06:59:33.901Z,0
2016-04-01T07:00:33.889Z,0
2016-04-01T07:01:33.892Z,0
2016-04-01T07:02:33.910Z,0
2016-04-01T07:03:33.944Z,5
2016-04-01T07:04:33.900Z,5
2016-04-01T07:05:33.903Z,5
2016-04-01T07:06:33.921Z,0
2016-04-01T07:07:33.923Z,0
2016-04-01T07:08:33.972Z,0
2016-04-01T07:09:33.975Z,0
2016-04-01T07:10:33.963Z,0
2016-04-01T07:11:33.950Z,0
2016-04-01T07:12:33.969Z,0
2016-04-01T07:13:33.971Z,0
2016-04-01T07:14:34.021Z,0
2016-04-01T07:15:34.007Z,0
2016-04-01T07:16:33.994Z,0
2016-04-01T07:17:34.013Z,0
2016-04-01T07:18:34.047Z,5
2016-04-01T07:19:34.019Z,5
2016-04-01T07:20:34.053Z,5
2016-04-01T07:21:34.040Z,10
2016-04-01T07:22:34.042Z,10
2016-04-01T07:23:34.045Z,10
2016-04-01T07:24:34.049Z,10
2016-04-01T07:25:34.065Z,10
2016-04-01T07:26:34.115Z,15
2016-04-01T07:27:34.102Z,15
2016-04-01T07:28:34.090Z,15
2016-04-01T07:29:34.107Z,15
2016-04-01T07:30:34.096Z,15
2016-04-01T07:31:34.113Z,15
2016-04-01T07:32:34.100Z,20
2016-04-01T07:33:34.026Z,20
2016-04-01T07:34:34.137Z,20
2016-04-01T07:35:34.156Z,20
2016-04-01T07:36:34.159Z,20
2016-04-01T07:37:34.162Z,15
2016-04-01T07:38:34.164Z,15
2016-04-01T07:39:34.167Z,15
2016-04-01T07:40:34.201Z,15
2016-04-01T07:41:34.187Z,15
2016-04-01T07:42:34.175Z,15
2016-04-01T07:43:34.178Z,15
2016-04-01T07:44:34.182Z,15
2016-04-01T07:45:34.184Z,15
2016-04-01T07:46:34.156Z,15
2016-04-01T07:47:34.159Z,15
2016-04-01T07:48:34.240Z,15
2016-04-01T07:49:34.190Z,15
2016-04-01T07:50:34.171Z,15
2016-04-01T07:51:34.153Z,15
2016-04-01T07:52:34.151Z,15
2016-04-01T07:53:34.149Z,15
2016-04-01T07:54:34.163Z,15
2016-04-01T07:55:34.195Z,20
2016-04-01T07:56:34.228Z,15
2016-04-01T07:57:34.182Z,15
2016-04-01T07:58:34.198Z,10
2016-04-01T07:59:34.216Z,10
2016-04-01T08:00:34.062Z,10
2016-04-01T08:01:34.220Z,15
2016-04-01T08:02:34.206Z,15
2016-04-01T08:03:34.302Z,15
2016-04-01T08:04:34.242Z,15
2016-04-01T08:05:34.259Z,15
2016-04-01T08:06:34.246Z,15
2016-04-01T08:07:34.280Z,15
2016-04-01T08:08:34.282Z,15
2016-04-01T08:09:34.285Z,15
2016-04-01T08:10:34.256Z,15
2016-04-01T08:11:34.274Z,15
2016-04-01T08:12:34.309Z,15
2016-04-01T08:13:34.296Z,15
2016-04-01T08:14:34.298Z,15
2016-04-01T08:15:34.301Z,15
2016-04-01T08:16:34.335Z,15
2016-04-01T08:17:34.337Z,15
2016-04-01T08:18:34.325Z,15
2016-04-01T08:19:34.328Z,15
2016-04-01T08:20:34.345Z,15
2016-04-01T08:21:34.364Z,15
2016-04-01T08:22:34.366Z,15
2016-04-01T08:23:34.353Z,15
2016-04-01T08:24:34.372Z,15
2016-04-01T08:25:34.375Z,15
2016-04-01T08:26:33.658Z,15
2016-04-01T08:27:34.410Z,20
2016-04-01T08:28:34.397Z,20
2016-04-01T08:29:34.401Z,20
2016-04-01T08:30:34.403Z,25
2016-04-01T08:31:34.422Z,25
2016-04-01T08:32:34.441Z,30
2016-04-01T08:33:34.443Z,30
2016-04-01T08:34:34.446Z,35
2016-04-01T08:35:34.292Z,30
2016-04-01T08:36:34.466Z,30
2016-04-01T08:37:34.469Z,30
2016-04-01T08:38:34.472Z,30
2016-04-01T08:39:34.474Z,30
2016-04-01T08:40:34.493Z,35
2016-04-01T08:41:34.496Z,30
2016-04-01T08:42:34.498Z,30
2016-04-01T08:43:34.517Z,40
2016-04-01T08:44:34.520Z,35
2016-04-01T08:45:34.523Z,25
2016-04-01T08:46:34.540Z,25
2016-04-01T08:47:34.528Z,25
2016-04-01T08:48:34.593Z,20
2016-04-01T08:49:34.408Z,20
2016-04-01T08:50:34.567Z,20
2016-04-01T08:51:34.585Z,20
2016-04-01T08:52:34.604Z,20
2016-04-01T08:53:34.590Z,25
2016-04-01T08:54:34.593Z,25
2016-04-01T08:55:34.612Z,25
2016-04-01T08:56:34.614Z,25
2016-04-01T08:57:34.617Z,25
2016-04-01T08:58:34.635Z,25
2016-04-01T08:59:34.622Z,25
2016-04-01T09:00:34.625Z,30
2016-04-01T09:01:34.643Z,30
2016-04-01T09:02:34.646Z,25
2016-04-01T09:03:33.930Z,30
2016-04-01T09:04:34.651Z,30
2016-04-01T09:05:34.685Z,25
2016-04-01T09:06:34.672Z,30
2016-04-01T09:07:34.707Z,30
2016-04-01T09:08:34.709Z,25
2016-04-01T09:09:34.712Z,20
2016-04-01T09:10:34.715Z,25
2016-04-01T09:11:34.732Z,25
2016-04-01T09:12:34.720Z,25
2016-04-01T09:13:34.738Z,25
2016-04-01T09:14:34.740Z,20
2016-04-01T09:15:34.743Z,20
2016-04-01T09:16:34.777Z,20
2016-04-01T09:17:34.780Z,20
2016-04-01T09:18:34.954Z,20
2016-04-01T09:19:34.817Z,25
2016-04-01T09:20:34.804Z,20
2016-04-01T09:21:34.790Z,20
2016-04-01T09:22:34.809Z,20
2016-04-01T09:23:34.827Z,20
2016-04-01T09:24:34.814Z,25
2016-04-01T09:25:34.833Z,25
2016-04-01T09:26:34.835Z,20
2016-04-01T09:27:34.838Z,25
2016-04-01T09:28:34.856Z,25
2016-04-01T09:29:34.858Z,25
2016-04-01T09:30:34.861Z,25
2016-04-01T09:31:34.849Z,25
2016-04-01T09:32:34.883Z,25
2016-04-01T09:33:34.792Z,25
2016-04-01T09:34:34.905Z,30
2016-04-01T09:35:34.938Z,30
2016-04-01T09:36:34.925Z,30
2016-04-01T09:37:34.913Z,30
2016-04-01T09:38:34.196Z,25
2016-04-01T09:39:34.949Z,25
2016-04-01T09:40:34.951Z,15
2016-04-01T09:41:34.954Z,15
2016-04-01T09:42:34.957Z,15
2016-04-01T09:43:34.960Z,15
2016-04-01T09:44:34.962Z,15
2016-04-01T09:45:35.012Z,15
2016-04-01T09:46:34.999Z,15
2016-04-01T09:47:35.002Z,15
2016-04-01T09:48:35.083Z,15
2016-04-01T09:49:35.023Z,20
2016-04-01T09:50:35.041Z,20
2016-04-01T09:51:35.043Z,25
2016-04-01T09:52:35.062Z,25
2016-04-01T09:53:35.048Z,20
2016-04-01T09:54:34.895Z,20
2016-04-01T09:55:35.257Z,15
2016-04-01T09:56:35.089Z,15
2016-04-01T09:57:35.075Z,15
2016-04-01T09:58:35.078Z,15
2016-04-01T09:59:35.112Z,20
2016-04-01T10:00:35.114Z,15
2016-04-01T10:01:35.102Z,20
2016-04-01T10:02:35.119Z,20
2016-04-01T10:03:35.075Z,20
2016-04-01T10:04:35.141Z,15
2016-04-01T10:05:35.143Z,15
2016-04-01T10:06:35.161Z,15
2016-04-01T10:07:35.071Z,20
2016-04-01T10:08:35.152Z,20
2016-04-01T10:09:35.155Z,20
2016-04-01T10:10:35.173Z,20
2016-04-01T10:11:35.160Z,20
2016-04-01T10:12:35.178Z,20
2016-04-01T10:13:35.196Z,20
2016-04-01T10:14:35.199Z,20
2016-04-01T10:15:35.232Z,20
2016-04-01T10:16:35.235Z,20
2016-04-01T10:17:35.238Z,25
2016-04-01T10:18:35.241Z,20
2016-04-01T10:19:35.260Z,20
2016-04-01T10:20:35.262Z,20
2016-04-01T10:21:35.265Z,20
2016-04-01T10:22:35.267Z,15
2016-04-01T10:23:35.286Z,15
2016-04-01T10:24:35.304Z,10
2016-04-01T10:25:35.291Z,10
2016-04-01T10:26:35.294Z,10
2016-04-01T10:27:35.311Z,10
2016-04-01T10:28:35.315Z,10
2016-04-01T10:29:35.317Z,15
2016-04-01T10:30:35.336Z,15
2016-04-01T10:31:35.322Z,20
2016-04-01T10:32:35.372Z,20
2016-04-01T10:33:35.375Z,20
2016-04-01T10:34:35.378Z,15
2016-04-01T10:35:35.381Z,15
2016-04-01T10:36:35.384Z,15
2016-04-01T10:37:35.386Z,15
2016-04-01T10:38:35.373Z,15
2016-04-01T10:39:35.391Z,15
2016-04-01T10:40:35.394Z,15
2016-04-01T10:41:35.396Z,15
2016-04-01T10:42:35.415Z,15
2016-04-01T10:43:35.402Z,15
2016-04-01T10:44:35.421Z,15
2016-04-01T10:45:35.408Z,15
2016-04-01T10:46:35.426Z,15
2016-04-01T10:47:35.429Z,15
2016-04-01T10:48:35.462Z,15
2016-04-01T10:49:35.434Z,15
2016-04-01T10:50:35.436Z,15
2016-04-01T10:51:35.454Z,15
2016-04-01T10:52:35.457Z,15
2016-04-01T10:53:35.476Z,15
2016-04-01T10:54:35.495Z,20
2016-04-01T10:55:35.340Z,20
2016-04-01T10:56:35.687Z,20
2016-04-01T10:57:35.361Z,20
2016-04-01T10:58:35.520Z,15
2016-04-01T10:59:35.539Z,20
2016-04-01T11:00:35.542Z,20
2016-04-01T11:01:35.528Z,20
2016-04-01T11:02:35.547Z,20
2016-04-01T11:03:35.440Z,20
2016-04-01T11:04:35.552Z,20
2016-04-01T11:05:35.555Z,20
2016-04-01T11:06:35.557Z,15
2016-04-01T11:07:35.569Z,15
2016-04-01T11:08:35.587Z,15
2016-04-01T11:09:35.606Z,20
2016-04-01T11:10:35.609Z,20
2016-04-01T11:11:35.611Z,20
2016-04-01T11:12:35.614Z,20
2016-04-01T11:13:35.616Z,20
2016-04-01T11:14:35.619Z,25
2016-04-01T11:15:35.622Z,25
2016-04-01T11:16:35.656Z,25
2016-04-01T11:17:35.659Z,25
2016-04-01T11:18:35.692Z,20
2016-04-01T11:19:35.664Z,20
2016-04-01T11:20:35.666Z,25
2016-04-01T11:21:35.685Z,30
2016-04-01T11:22:35.671Z,30
2016-04-01T11:23:35.690Z,30
2016-04-01T11:24:35.693Z,25
2016-04-01T11:25:35.696Z,25
2016-04-01T11:26:35.699Z,30
2016-04-01T11:27:35.716Z,30
2016-04-01T11:28:35.719Z,30
2016-04-01T11:29:35.737Z,35
2016-04-01T11:30:35.740Z,40
2016-04-01T11:31:35.758Z,35
2016-04-01T11:32:35.761Z,35
2016-04-01T11:33:35.795Z,30
2016-04-01T11:34:35.782Z,30
2016-04-01T11:35:35.785Z,25
2016-04-01T11:36:35.787Z,25
2016-04-01T11:37:35.806Z,25
2016-04-01T11:38:35.792Z,25
2016-04-01T11:39:35.827Z,25
2016-04-01T11:40:35.861Z,25
2016-04-01T11:41:35.864Z,25
2016-04-01T11:42:35.836Z,20
2016-04-01T11:43:35.853Z,25
2016-04-01T11:44:35.872Z,25
2016-04-01T11:45:35.859Z,30
2016-04-01T11:46:35.908Z,30
2016-04-01T11:47:35.724Z,35
2016-04-01T11:48:35.897Z,50
2016-04-01T11:49:35.886Z,60
2016-04-01T11:50:35.903Z,65
2016-04-01T11:51:35.953Z,65
2016-04-01T11:52:35.941Z,50
2016-04-01T11:53:35.927Z,40
2016-04-01T11:54:35.961Z,40
2016-04-01T11:55:35.948Z,40
2016-04-01T11:56:35.951Z,30
2016-04-01T11:57:35.937Z,30
2016-04-01T11:58:35.971Z,30
2016-04-01T11:59:35.990Z,35
2016-04-01T12:00:35.993Z,40
2016-04-01T12:01:35.965Z,35
2016-04-01T12:02:35.982Z,70
2016-04-01T12:03:36.001Z,85
2016-04-01T12:04:36.003Z,90
2016-04-01T12:05:36.037Z,90
2016-04-01T12:06:36.040Z,90
2016-04-01T12:07:36.028Z,70
2016-04-01T12:08:36.046Z,65
2016-04-01T12:09:36.048Z,45
2016-04-01T12:10:36.067Z,90
2016-04-01T12:11:36.084Z,100
2016-04-01T12:12:36.072Z,80
2016-04-01T12:13:36.074Z,30
2016-04-01T12:14:36.077Z,25
2016-04-01T12:15:36.080Z,35
2016-04-01T12:16:36.083Z,55
2016-04-01T12:17:36.133Z,25
2016-04-01T12:18:36.308Z,20
2016-04-01T12:19:36.122Z,15
2016-04-01T12:20:36.141Z,15
2016-04-01T12:21:37.143Z,15
2016-04-01T12:22:36.161Z,20
2016-04-01T12:23:36.148Z,20
2016-04-01T12:24:36.166Z,25
2016-04-01T12:25:36.185Z,20
2016-04-01T12:26:36.187Z,20
2016-04-01T12:27:36.175Z,20
2016-04-01T12:28:36.193Z,20
2016-04-01T12:29:36.618Z,20
2016-04-01T12:30:36.198Z,20
2016-04-01T12:31:36.201Z,25
2016-04-01T12:32:36.220Z,25
2016-04-01T12:33:36.254Z,25
2016-04-01T12:34:36.272Z,20
2016-04-01T12:35:36.259Z,20
2016-04-01T12:36:36.262Z,20
2016-04-01T12:37:36.264Z,25
2016-04-01T12:38:36.282Z,25
2016-04-01T12:39:36.285Z,30
2016-04-01T12:40:36.272Z,40
2016-04-01T12:41:36.275Z,50
2016-04-01T12:42:36.308Z,45
2016-04-01T12:43:36.312Z,35
2016-04-01T12:44:36.345Z,25
2016-04-01T12:45:36.348Z,20
2016-04-01T12:46:36.319Z,20
2016-04-01T12:47:36.338Z,15
2016-04-01T12:48:36.388Z,15
2016-04-01T12:49:36.374Z,15
2016-04-01T12:50:36.361Z,15
2016-04-01T12:51:36.410Z,20
2016-04-01T12:52:36.382Z,20
2016-04-01T12:53:36.385Z,20
2016-04-01T12:54:36.388Z,20
2016-04-01T12:55:36.375Z,20
2016-04-01T12:56:36.394Z,25
2016-04-01T12:57:36.443Z,25
2016-04-01T12:58:36.446Z,25
2016-04-01T12:59:36.432Z,25
2016-04-01T13:00:36.436Z,20
2016-04-01T13:01:36.423Z,20
2016-04-01T13:02:36.441Z,20
2016-04-01T13:03:36.475Z,20
2016-04-01T13:04:36.509Z,20
2016-04-01T13:05:36.480Z,20
2016-04-01T13:06:36.529Z,20
2016-04-01T13:07:36.517Z,20
2016-04-01T13:08:36.519Z,20
2016-04-01T13:09:36.506Z,25
2016-04-01T13:10:36.493Z,25
2016-04-01T13:11:36.512Z,25
2016-04-01T13:12:36.531Z,25
2016-04-01T13:13:36.533Z,25
2016-04-01T13:14:36.536Z,25
2016-04-01T13:15:36.553Z,25
2016-04-01T13:16:36.572Z,30
2016-04-01T13:17:36.606Z,30
2016-04-01T13:18:36.593Z,30
2016-04-01T13:19:36.580Z,30
2016-04-01T13:20:36.426Z,35
2016-04-01T13:21:36.586Z,40
2016-04-01T13:22:36.604Z,35
2016-04-01T13:23:36.622Z,30
2016-04-01T13:24:36.624Z,20
2016-04-01T13:25:36.627Z,20
2016-04-01T13:26:36.630Z,25
2016-04-01T13:27:36.649Z,25
2016-04-01T13:28:36.652Z,20
2016-04-01T13:29:36.655Z,20
2016-04-01T13:30:36.672Z,25
2016-04-01T13:31:36.675Z,25
2016-04-01T13:32:36.662Z,20
2016-04-01T13:33:36.712Z,20
2016-04-01T13:34:36.698Z,20
2016-04-01T13:35:36.717Z,20
2016-04-01T13:36:36.704Z,25
2016-04-01T13:37:36.706Z,30
2016-04-01T13:38:36.726Z,30
2016-04-01T13:39:36.743Z,30
2016-04-01T13:40:36.746Z,30
2016-04-01T13:41:36.748Z,30
2016-04-01T13:42:36.783Z,25
2016-04-01T13:43:36.770Z,20
2016-04-01T13:44:36.772Z,20
2016-04-01T13:45:36.775Z,20
2016-04-01T13:46:36.777Z,20
2016-04-01T13:47:36.796Z,20
2016-04-01T13:48:36.689Z,25
2016-04-01T13:49:36.817Z,20
2016-04-01T13:50:36.820Z,20
2016-04-01T13:51:36.822Z,20
2016-04-01T13:52:36.825Z,15
2016-04-01T13:53:36.843Z,15
2016-04-01T13:54:36.862Z,15
2016-04-01T13:55:36.864Z,15
2016-04-01T13:56:36.883Z,15
2016-04-01T13:57:36.870Z,15
2016-04-01T13:58:36.904Z,15
2016-04-01T13:59:36.891Z,15
2016-04-01T14:00:36.909Z,15
2016-04-01T14:01:36.896Z,15
2016-04-01T14:02:36.914Z,15
2016-04-01T14:03:36.917Z,15
2016-04-01T14:04:36.920Z,15
2016-04-01T14:05:36.938Z,15
2016-04-01T14:06:36.941Z,15
2016-04-01T14:07:36.944Z,15
2016-04-01T14:08:36.962Z,20
2016-04-01T14:09:36.965Z,20
2016-04-01T14:10:37.217Z,20
2016-04-01T14:11:36.986Z,20
2016-04-01T14:12:36.972Z,20
2016-04-01T14:13:36.991Z,15
2016-04-01T14:14:36.884Z,15
2016-04-01T14:15:37.278Z,15
2016-04-01T14:16:37.062Z,15
2016-04-01T14:17:37.080Z,15
2016-04-01T14:18:37.051Z,15
2016-04-01T14:19:37.069Z,15
2016-04-01T14:20:37.072Z,15
2016-04-01T14:21:37.075Z,15
2016-04-01T14:22:37.078Z,15
2016-04-01T14:23:37.081Z,15
2016-04-01T14:24:37.083Z,15
2016-04-01T14:25:37.086Z,15
2016-04-01T14:26:37.104Z,15
2016-04-01T14:27:37.107Z,15
2016-04-01T14:28:37.110Z,15
2016-04-01T14:29:37.143Z,15
2016-04-01T14:30:37.115Z,15
2016-04-01T14:31:37.132Z,15